Time;durP1;ratioP1;P1;durP2;ratioP2;P2;SDS_P1;SDS_P2;PMS_P1;PMS_P2;Temp;Humidity;BMP_temperature;BMP_pressure;BME280_temperature;BME280_humidity;BME280_pressure;Samples;Min_cycle;Max_cycle;Signal;HPM_P1;HPM_P2
2021/03/30 00:00:32;;;;;;;;;;;18.00;59.30;;;;;;5043733;28;20278;-74
2021/03/30 00:02:59;;;;;;;;;;;18.00;59.30;;;;;;5047874;28;19913;-73
2021/03/30 00:05:24;;;;;;;;;;;18.00;59.30;;;;;;5035061;28;19913;-73
2021/03/30 00:07:50;;;;;;;;;;;18.00;59.40;;;;;;5051614;28;20347;-73
2021/03/30 00:10:17;;;;;;;;;;;18.00;59.40;;;;;;5054408;28;19909;-74
2021/03/30 00:12:43;;;;;;;;;;;18.00;59.40;;;;;;5033891;28;19989;-74
2021/03/30 00:15:09;;;;;;;;;;;18.00;59.40;;;;;;5024450;28;20015;-73
2021/03/30 00:17:35;;;;;;;;;;;17.90;59.40;;;;;;5044170;28;19912;-74
2021/03/30 00:20:01;;;;;;;;;;;18.00;59.40;;;;;;5049936;28;20000;-74
2021/03/30 00:22:26;;;;;;;;;;;18.00;59.40;;;;;;5053693;28;20053;-73
2021/03/30 00:24:52;;;;;;;;;;;18.00;59.40;;;;;;5034846;28;19920;-73
2021/03/30 00:27:17;;;;;;;;;;;18.00;59.40;;;;;;5037393;28;19912;-74
2021/03/30 00:29:43;;;;;;;;;;;18.00;59.40;;;;;;5023693;28;19923;-73
2021/03/30 00:32:11;;;;;;;;;;;18.00;59.40;;;;;;5032110;28;19963;-73
2021/03/30 00:34:37;;;;;;;;;;;18.00;59.40;;;;;;5034794;28;19917;-74
2021/03/30 00:37:02;;;;;;;;;;;18.00;59.40;;;;;;5032148;28;19963;-74
2021/03/30 00:39:28;;;;;;;;;;;18.00;59.40;;;;;;5049928;28;19920;-74
2021/03/30 00:41:53;;;;;;;;;;;18.00;59.40;;;;;;5052516;28;20273;-74
2021/03/30 00:44:19;;;;;;;;;;;18.00;59.50;;;;;;5034789;28;19967;-74
2021/03/30 00:46:45;;;;;;;;;;;18.00;59.40;;;;;;5033033;28;19962;-74
2021/03/30 00:49:13;;;;;;;;;;;18.00;59.40;;;;;;5047521;28;19936;-74
2021/03/30 00:51:39;;;;;;;;;;;18.00;59.50;;;;;;5043809;28;20455;-73
2021/03/30 00:54:04;;;;;;;;;;;18.00;59.50;;;;;;5059887;28;19990;-74
2021/03/30 00:56:30;;;;;;;;;;;17.90;59.50;;;;;;5038784;28;20382;-74
2021/03/30 00:58:56;;;;;;;;;;;17.90;59.50;;;;;;5050341;28;19920;-74
2021/03/30 01:01:21;;;;;;;;;;;17.90;59.50;;;;;;5024610;28;20269;-74
2021/03/30 01:03:47;;;;;;;;;;;17.90;59.50;;;;;;5040449;28;19964;-74
2021/03/30 01:06:13;;;;;;;;;;;18.00;59.50;;;;;;5020739;28;19924;-74
2021/03/30 01:08:41;;;;;;;;;;;18.00;59.50;;;;;;5041608;28;20462;-74
2021/03/30 01:11:26;;;;;;;;;;;18.00;59.50;;;;;;5039581;28;19920;-73
2021/03/30 01:13:54;;;;;;;;;;;17.90;59.50;;;;;;5048710;28;20290;-74
2021/03/30 01:16:22;;;;;;;;;;;17.90;59.50;;;;;;5031021;28;19917;-74
2021/03/30 01:19:09;;;;;;;;;;;17.90;59.50;;;;;;5040898;28;19920;-74
2021/03/30 01:21:53;;;;;;;;;;;17.90;59.50;;;;;;5056355;28;20366;-74
2021/03/30 01:24:30;;;;;;;;;;;17.90;59.50;;;;;;5052076;28;19912;-73
2021/03/30 01:26:57;;;;;;;;;;;17.90;59.60;;;;;;5055662;28;19914;-74
2021/03/30 01:29:27;;;;;;;;;;;17.90;59.60;;;;;;5023496;28;20377;-73
2021/03/30 01:31:59;;;;;;;;;;;17.90;59.60;;;;;;5043740;28;19917;-73
2021/03/30 01:34:26;;;;;;;;;;;17.90;59.60;;;;;;5034268;28;20007;-74
2021/03/30 01:36:59;;;;;;;;;;;17.90;59.60;;;;;;5031707;28;19912;-74
2021/03/30 01:39:25;;;;;;;;;;;17.90;59.60;;;;;;5030551;28;19920;-75
2021/03/30 01:41:51;;;;;;;;;;;17.90;59.60;;;;;;5042809;28;20449;-74
2021/03/30 01:44:18;;;;;;;;;;;17.90;59.60;;;;;;5016538;28;19913;-74
2021/03/30 01:46:44;;;;;;;;;;;17.90;59.60;;;;;;5022056;28;19970;-73
2021/03/30 01:49:11;;;;;;;;;;;17.90;59.60;;;;;;5032944;28;19948;-73
2021/03/30 01:51:37;;;;;;;;;;;17.90;59.60;;;;;;5032219;28;19921;-73
2021/03/30 01:54:04;;;;;;;;;;;17.90;59.70;;;;;;5045567;28;20302;-74
2021/03/30 01:56:31;;;;;;;;;;;17.90;59.60;;;;;;5025632;28;20371;-73
2021/03/30 01:58:58;;;;;;;;;;;17.90;59.60;;;;;;5032898;28;19913;-73
2021/03/30 02:01:24;;;;;;;;;;;17.90;59.70;;;;;;5046737;28;20015;-73
2021/03/30 02:03:50;;;;;;;;;;;17.90;59.70;;;;;;5032714;28;20000;-74
2021/03/30 02:06:16;;;;;;;;;;;17.90;59.70;;;;;;5032798;28;20013;-73
2021/03/30 02:08:42;;;;;;;;;;;17.90;59.70;;;;;;5045493;28;20003;-74
2021/03/30 02:11:07;;;;;;;;;;;17.90;59.70;;;;;;5049677;28;19921;-74
2021/03/30 02:16:15;;;;;;;;;;;17.90;59.70;;;;;;5048480;28;19917;-74
2021/03/30 02:18:45;;;;;;;;;;;17.90;59.70;;;;;;5037767;28;19913;-73
2021/03/30 02:21:15;;;;;;;;;;;17.90;59.70;;;;;;5026486;28;19999;-74
2021/03/30 02:23:42;;;;;;;;;;;17.90;59.70;;;;;;5047942;28;19970;-73
2021/03/30 02:26:08;;;;;;;;;;;17.90;59.70;;;;;;5060207;28;20343;-74
2021/03/30 02:28:46;;;;;;;;;;;17.90;59.70;;;;;;5047573;28;19956;-73
2021/03/30 02:31:14;;;;;;;;;;;17.90;59.70;;;;;;5034828;28;19912;-76
2021/03/30 02:33:41;;;;;;;;;;;17.90;59.80;;;;;;5034754;28;19948;-73
2021/03/30 02:36:07;;;;;;;;;;;17.90;59.70;;;;;;5034927;28;20556;-73
2021/03/30 02:38:33;;;;;;;;;;;17.80;59.70;;;;;;5022687;28;19917;-75
2021/03/30 02:40:59;;;;;;;;;;;17.90;59.70;;;;;;5034113;28;19921;-73
2021/03/30 02:43:25;;;;;;;;;;;17.90;59.70;;;;;;5021484;28;19940;-74
2021/03/30 02:45:51;;;;;;;;;;;17.90;59.80;;;;;;5043533;28;19913;-74
2021/03/30 02:48:17;;;;;;;;;;;17.90;59.80;;;;;;5049368;28;19919;-74
2021/03/30 02:50:43;;;;;;;;;;;17.80;59.80;;;;;;5037017;28;19913;-74
2021/03/30 02:53:08;;;;;;;;;;;17.80;59.80;;;;;;5031093;28;19943;-74
2021/03/30 02:55:35;;;;;;;;;;;17.80;59.80;;;;;;5037400;28;19917;-74
2021/03/30 02:58:01;;;;;;;;;;;17.80;59.80;;;;;;5046113;28;20308;-74
2021/03/30 03:00:27;;;;;;;;;;;17.80;59.80;;;;;;5035347;28;19920;-74
2021/03/30 03:02:55;;;;;;;;;;;17.80;59.80;;;;;;5035697;28;20351;-73
2021/03/30 03:05:21;;;;;;;;;;;17.90;59.80;;;;;;5025825;28;20478;-74
2021/03/30 03:07:48;;;;;;;;;;;17.80;59.80;;;;;;5035194;28;19948;-74
2021/03/30 03:10:14;;;;;;;;;;;17.80;59.80;;;;;;5033110;28;19917;-74
2021/03/30 03:12:42;;;;;;;;;;;17.80;59.80;;;;;;5035287;28;19986;-73
2021/03/30 03:15:08;;;;;;;;;;;17.80;59.80;;;;;;5034348;28;20028;-73
2021/03/30 03:17:34;;;;;;;;;;;17.80;59.90;;;;;;5047405;28;20425;-74
2021/03/30 03:20:02;;;;;;;;;;;17.80;59.80;;;;;;5052049;28;19947;-73
2021/03/30 03:22:28;;;;;;;;;;;17.80;59.80;;;;;;5025169;28;19959;-73
2021/03/30 03:24:54;;;;;;;;;;;17.80;59.80;;;;;;5028666;28;20341;-74
2021/03/30 03:27:19;;;;;;;;;;;17.80;59.90;;;;;;5042687;28;19920;-73
2021/03/30 03:29:45;;;;;;;;;;;17.80;59.90;;;;;;5034472;28;20381;-74
2021/03/30 03:32:11;;;;;;;;;;;17.80;59.90;;;;;;5045966;28;19913;-74
2021/03/30 03:34:36;;;;;;;;;;;17.80;59.90;;;;;;5025821;28;19917;-73
2021/03/30 03:37:02;;;;;;;;;;;17.80;59.90;;;;;;5035422;28;20371;-75
2021/03/30 03:39:28;;;;;;;;;;;17.80;59.90;;;;;;5032769;28;19966;-74
2021/03/30 03:41:53;;;;;;;;;;;17.80;59.90;;;;;;5029297;28;19948;-73
2021/03/30 03:44:19;;;;;;;;;;;17.80;59.90;;;;;;5033373;28;19921;-74
2021/03/30 03:46:47;;;;;;;;;;;17.80;59.90;;;;;;5033379;28;19936;-73
2021/03/30 03:49:13;;;;;;;;;;;17.80;59.90;;;;;;5031027;28;20007;-74
2021/03/30 03:51:41;;;;;;;;;;;17.80;59.90;;;;;;5015245;28;20386;-74
2021/03/30 03:54:09;;;;;;;;;;;17.80;59.90;;;;;;5019890;28;19917;-74
2021/03/30 03:56:36;;;;;;;;;;;17.80;59.90;;;;;;5018676;28;19953;-74
2021/03/30 03:59:05;;;;;;;;;;;17.80;59.90;;;;;;5020621;28;19913;-75
2021/03/30 04:01:51;;;;;;;;;;;17.80;60.00;;;;;;5027104;28;20405;-74
2021/03/30 04:04:25;;;;;;;;;;;17.80;60.00;;;;;;5028326;28;19978;-74
2021/03/30 04:06:54;;;;;;;;;;;17.80;60.00;;;;;;5029832;28;19964;-73
2021/03/30 04:09:21;;;;;;;;;;;17.80;60.00;;;;;;5031857;28;20290;-73
2021/03/30 04:11:50;;;;;;;;;;;17.80;60.00;;;;;;5028226;28;19913;-74
2021/03/30 04:14:16;;;;;;;;;;;17.80;60.00;;;;;;5030335;28;19921;-74
2021/03/30 04:16:42;;;;;;;;;;;17.80;60.00;;;;;;5031238;28;20271;-74
2021/03/30 04:19:11;;;;;;;;;;;17.80;60.00;;;;;;5030542;28;20291;-74
2021/03/30 04:21:37;;;;;;;;;;;17.80;60.00;;;;;;5031762;28;19913;-73
2021/03/30 04:24:03;;;;;;;;;;;17.80;60.00;;;;;;5030354;28;20012;-74
2021/03/30 04:26:28;;;;;;;;;;;17.80;60.00;;;;;;5026433;28;19955;-74
2021/03/30 04:28:54;;;;;;;;;;;17.80;60.00;;;;;;5067141;28;19952;-73
2021/03/30 04:31:19;;;;;;;;;;;17.80;60.00;;;;;;5030309;28;19913;-74
2021/03/30 04:33:45;;;;;;;;;;;17.80;60.00;;;;;;5031000;28;19921;-74
2021/03/30 04:36:11;;;;;;;;;;;17.80;60.00;;;;;;5032483;28;19940;-75
2021/03/30 04:38:39;;;;;;;;;;;17.80;60.00;;;;;;5054231;28;20042;-74
2021/03/30 04:41:07;;;;;;;;;;;17.80;60.00;;;;;;5039859;28;19966;-74
2021/03/30 04:43:33;;;;;;;;;;;17.80;60.10;;;;;;5031260;28;19913;-75
2021/03/30 04:45:58;;;;;;;;;;;17.80;60.00;;;;;;5035198;28;19944;-74
2021/03/30 04:48:24;;;;;;;;;;;17.80;60.00;;;;;;5042518;28;19913;-75
2021/03/30 04:50:49;;;;;;;;;;;17.80;60.10;;;;;;5047351;28;19959;-74
2021/03/30 04:53:15;;;;;;;;;;;17.80;60.10;;;;;;5040887;28;19921;-74
2021/03/30 04:55:40;;;;;;;;;;;17.80;60.10;;;;;;5045791;28;19971;-74
2021/03/30 04:58:06;;;;;;;;;;;17.80;60.10;;;;;;5047855;28;19955;-76
2021/03/30 05:00:31;;;;;;;;;;;17.80;60.10;;;;;;5043909;28;19939;-74
2021/03/30 05:02:57;;;;;;;;;;;17.80;60.10;;;;;;5048416;28;19913;-75
2021/03/30 05:05:23;;;;;;;;;;;17.80;60.10;;;;;;5040782;28;20025;-74
2021/03/30 05:07:48;;;;;;;;;;;17.80;60.10;;;;;;5044606;28;19923;-75
2021/03/30 05:10:14;;;;;;;;;;;17.80;60.10;;;;;;5034517;28;19959;-74
2021/03/30 05:12:40;;;;;;;;;;;17.80;60.10;;;;;;5033743;28;19916;-74
2021/03/30 05:15:06;;;;;;;;;;;17.80;60.10;;;;;;5041252;28;20382;-75
2021/03/30 05:17:31;;;;;;;;;;;17.80;60.10;;;;;;5033702;28;19913;-75
2021/03/30 05:19:57;;;;;;;;;;;17.80;60.10;;;;;;5031642;28;19913;-73
2021/03/30 05:22:22;;;;;;;;;;;17.80;60.10;;;;;;5033175;28;19913;-73
2021/03/30 05:24:48;;;;;;;;;;;17.80;60.00;;;;;;5064248;28;19924;-73
2021/03/30 05:27:13;;;;;;;;;;;17.80;60.10;;;;;;5018509;28;19923;-74
2021/03/30 05:29:45;;;;;;;;;;;17.80;60.00;;;;;;5031361;28;19913;-73
2021/03/30 05:32:15;;;;;;;;;;;17.80;60.00;;;;;;5016038;28;19924;-73
2021/03/30 05:34:43;;;;;;;;;;;17.80;60.00;;;;;;5047321;28;19939;-73
2021/03/30 05:37:08;;;;;;;;;;;17.80;60.00;;;;;;5030761;28;20359;-73
2021/03/30 05:39:34;;;;;;;;;;;17.80;60.00;;;;;;5029383;28;20224;-73
2021/03/30 05:41:59;;;;;;;;;;;17.80;60.00;;;;;;5043944;28;20294;-73
2021/03/30 05:44:26;;;;;;;;;;;17.80;60.00;;;;;;5032101;28;20425;-73
2021/03/30 05:47:06;;;;;;;;;;;17.80;60.00;;;;;;5042078;28;20428;-74
2021/03/30 05:49:39;;;;;;;;;;;17.80;60.00;;;;;;5048255;28;19935;-73
2021/03/30 05:52:14;;;;;;;;;;;17.80;59.90;;;;;;5030929;28;19918;-73
2021/03/30 05:54:43;;;;;;;;;;;17.80;59.90;;;;;;5027641;28;19921;-73
2021/03/30 05:57:11;;;;;;;;;;;17.80;59.90;;;;;;5016588;28;19967;-73
2021/03/30 05:59:38;;;;;;;;;;;17.80;59.90;;;;;;5031993;28;20005;-72
2021/03/30 06:02:05;;;;;;;;;;;17.80;59.90;;;;;;5030974;28;19935;-73
2021/03/30 06:04:31;;;;;;;;;;;17.80;59.90;;;;;;5039506;28;20354;-73
2021/03/30 06:07:01;;;;;;;;;;;17.80;59.80;;;;;;5046660;28;19920;-73
2021/03/30 06:09:32;;;;;;;;;;;17.80;59.80;;;;;;5046956;28;19920;-73
2021/03/30 06:11:57;;;;;;;;;;;17.80;59.80;;;;;;5041065;28;20007;-73
2021/03/30 06:14:35;;;;;;;;;;;17.80;59.80;;;;;;5054895;28;20012;-73
2021/03/30 06:17:01;;;;;;;;;;;17.80;59.80;;;;;;5037327;28;19916;-73
2021/03/30 06:19:26;;;;;;;;;;;17.80;59.80;;;;;;5054634;28;20381;-73
2021/03/30 06:21:59;;;;;;;;;;;17.80;59.80;;;;;;5052565;28;19913;-73
2021/03/30 06:24:26;;;;;;;;;;;17.80;59.80;;;;;;5063394;28;19913;-73
2021/03/30 06:26:53;;;;;;;;;;;17.80;59.80;;;;;;5034095;28;19936;-73
2021/03/30 06:29:35;;;;;;;;;;;17.90;59.80;;;;;;5049017;28;20012;-73
2021/03/30 06:32:01;;;;;;;;;;;17.80;59.70;;;;;;5035525;28;20007;-72
2021/03/30 06:34:28;;;;;;;;;;;17.80;59.70;;;;;;5035879;28;19975;-72
2021/03/30 06:36:54;;;;;;;;;;;17.80;59.70;;;;;;5028096;28;19928;-73
2021/03/30 06:39:31;;;;;;;;;;;17.80;59.70;;;;;;5049640;28;20274;-74
2021/03/30 06:42:20;;;;;;;;;;;17.90;59.70;;;;;;5037133;28;19922;-73
2021/03/30 06:44:42;;;;;;;;;;;17.90;59.70;;;;;;5040055;28;20238;-73
2021/03/30 06:47:17;;;;;;;;;;;17.80;59.70;;;;;;5043294;28;20290;-73
2021/03/30 06:49:58;;;;;;;;;;;17.80;59.70;;;;;;5032313;28;19962;-76
2021/03/30 06:52:26;;;;;;;;;;;17.90;59.70;;;;;;5044537;28;19921;-75
2021/03/30 06:54:56;;;;;;;;;;;17.90;59.70;;;;;;5065427;28;19940;-74
2021/03/30 06:57:35;;;;;;;;;;;17.90;59.60;;;;;;5033595;28;19916;-74
2021/03/30 07:00:03;;;;;;;;;;;17.90;59.60;;;;;;5034916;28;20011;-74
2021/03/30 07:02:29;;;;;;;;;;;17.90;59.60;;;;;;5052020;28;19913;-74
2021/03/30 07:04:56;;;;;;;;;;;17.90;59.60;;;;;;5051305;28;19917;-74
2021/03/30 07:07:22;;;;;;;;;;;17.90;59.60;;;;;;5018957;28;19909;-75
2021/03/30 07:09:50;;;;;;;;;;;17.90;59.60;;;;;;5050253;28;19913;-75
2021/03/30 07:12:16;;;;;;;;;;;17.90;59.60;;;;;;5028267;28;19913;-75
2021/03/30 07:14:41;;;;;;;;;;;18.00;59.60;;;;;;5047052;28;19924;-75
2021/03/30 07:17:07;;;;;;;;;;;17.90;59.60;;;;;;5035105;28;19909;-76
2021/03/30 07:19:33;;;;;;;;;;;17.90;59.50;;;;;;5023751;28;20283;-76
2021/03/30 07:21:59;;;;;;;;;;;17.90;59.50;;;;;;5043899;28;20012;-75
2021/03/30 07:24:27;;;;;;;;;;;18.00;59.50;;;;;;5052303;28;19909;-75
2021/03/30 07:27:02;;;;;;;;;;;18.00;59.50;;;;;;5050147;28;20367;-75
2021/03/30 07:29:37;;;;;;;;;;;18.00;59.50;;;;;;5052886;28;19913;-75
2021/03/30 07:32:02;;;;;;;;;;;17.90;59.50;;;;;;5047104;28;19920;-82
2021/03/30 07:34:47;;;;;;;;;;;18.00;59.40;;;;;;5056740;28;19917;-75
2021/03/30 07:37:39;;;;;;;;;;;18.00;59.50;;;;;;5050028;28;19917;-76
2021/03/30 07:40:06;;;;;;;;;;;18.00;59.40;;;;;;5012265;28;20138;-76
2021/03/30 07:42:32;;;;;;;;;;;18.00;59.40;;;;;;5027908;28;19956;-77
2021/03/30 07:44:58;;;;;;;;;;;18.00;59.40;;;;;;5031678;28;19971;-76
2021/03/30 07:47:24;;;;;;;;;;;18.00;59.40;;;;;;5033115;28;19924;-75
2021/03/30 07:49:58;;;;;;;;;;;18.00;59.30;;;;;;5050079;28;19913;-75
2021/03/30 07:52:29;;;;;;;;;;;18.00;59.30;;;;;;5032671;28;20333;-75
2021/03/30 07:55:17;;;;;;;;;;;18.00;59.30;;;;;;5034101;28;19916;-75
2021/03/30 07:58:21;;;;;;;;;;;18.10;59.30;;;;;;5027306;28;20377;-75
2021/03/30 08:00:48;;;;;;;;;;;18.00;59.30;;;;;;5018321;28;19921;-75
2021/03/30 08:03:21;;;;;;;;;;;18.10;59.20;;;;;;5027085;28;19916;-75
2021/03/30 08:06:02;;;;;;;;;;;18.00;59.20;;;;;;5036143;28;19913;-75
2021/03/30 08:08:28;;;;;;;;;;;18.10;59.20;;;;;;5031062;28;20012;-75
2021/03/30 08:10:54;;;;;;;;;;;18.10;59.10;;;;;;5052730;28;20421;-74
2021/03/30 08:13:35;;;;;;;;;;;18.10;59.10;;;;;;5041897;28;19917;-75
2021/03/30 08:16:09;;;;;;;;;;;18.10;59.10;;;;;;5039739;28;19917;-75
2021/03/30 08:18:36;;;;;;;;;;;18.10;59.10;;;;;;5024555;28;20373;-75
2021/03/30 08:21:07;;;;;;;;;;;18.10;59.10;;;;;;5023431;28;19991;-76
2021/03/30 08:23:51;;;;;;;;;;;18.20;59.00;;;;;;5051750;28;19947;-77
2021/03/30 08:26:21;;;;;;;;;;;18.10;59.00;;;;;;5033091;28;20322;-75
2021/03/30 08:28:55;;;;;;;;;;;18.10;59.00;;;;;;5040281;28;20389;-75
2021/03/30 08:31:31;;;;;;;;;;;18.10;59.00;;;;;;5048326;28;20259;-77
2021/03/30 08:33:58;;;;;;;;;;;18.10;59.00;;;;;;5042214;28;19945;-75
2021/03/30 08:36:31;;;;;;;;;;;18.10;58.90;;;;;;5048924;28;20329;-75
2021/03/30 08:38:58;;;;;;;;;;;18.20;58.90;;;;;;5041028;28;19913;-76
2021/03/30 08:41:42;;;;;;;;;;;18.20;58.90;;;;;;5057678;28;20393;-76
2021/03/30 08:44:19;;;;;;;;;;;18.20;58.90;;;;;;5050187;28;19920;-75
2021/03/30 08:46:50;;;;;;;;;;;18.20;58.90;;;;;;5055376;28;19917;-75
2021/03/30 08:49:35;;;;;;;;;;;18.20;58.80;;;;;;5033622;28;19935;-75
2021/03/30 08:52:07;;;;;;;;;;;18.20;58.80;;;;;;5027673;28;19912;-75
2021/03/30 08:54:34;;;;;;;;;;;18.20;58.80;;;;;;5050940;28;19924;-75
2021/03/30 08:57:02;;;;;;;;;;;18.20;58.80;;;;;;5034556;28;19917;-75
2021/03/30 08:59:28;;;;;;;;;;;18.20;58.80;;;;;;5045122;28;19912;-75
2021/03/30 09:01:58;;;;;;;;;;;18.20;58.80;;;;;;5038919;28;19916;-75
2021/03/30 09:04:31;;;;;;;;;;;18.20;58.70;;;;;;5027455;28;19982;-76
2021/03/30 09:06:57;;;;;;;;;;;18.20;58.70;;;;;;5051757;28;19936;-75
2021/03/30 09:09:37;;;;;;;;;;;18.20;58.60;;;;;;5072999;28;19912;-75
2021/03/30 09:12:04;;;;;;;;;;;18.30;58.60;;;;;;5050676;28;20358;-75
2021/03/30 09:14:29;;;;;;;;;;;18.20;58.60;;;;;;5054022;28;19963;-75
2021/03/30 09:17:09;;;;;;;;;;;18.20;58.60;;;;;;5038869;28;19917;-75
2021/03/30 09:19:45;;;;;;;;;;;18.20;58.50;;;;;;5061893;28;19952;-75
2021/03/30 09:24:53;;;;;;;;;;;18.30;58.50;;;;;;5047196;28;19913;-75
2021/03/30 09:27:23;;;;;;;;;;;18.30;58.40;;;;;;5049806;28;19913;-76
2021/03/30 09:29:51;;;;;;;;;;;18.30;58.40;;;;;;5046429;28;19923;-76
2021/03/30 09:32:17;;;;;;;;;;;18.30;58.40;;;;;;5056637;28;19912;-76
2021/03/30 09:34:44;;;;;;;;;;;18.30;58.40;;;;;;5029438;28;19923;-76
2021/03/30 09:37:09;;;;;;;;;;;18.30;58.40;;;;;;5049639;28;20425;-76
2021/03/30 09:39:36;;;;;;;;;;;18.30;58.30;;;;;;5046343;28;19917;-76
2021/03/30 09:42:03;;;;;;;;;;;18.30;58.30;;;;;;5035455;28;19928;-78
2021/03/30 09:44:33;;;;;;;;;;;18.30;58.30;;;;;;5038352;28;19919;-75
2021/03/30 09:46:59;;;;;;;;;;;18.30;58.30;;;;;;5035050;28;19912;-76
2021/03/30 09:49:24;;;;;;;;;;;18.30;58.30;;;;;;5053625;28;19938;-76
2021/03/30 09:51:51;;;;;;;;;;;18.30;58.30;;;;;;5035608;28;19920;-76
2021/03/30 09:54:38;;;;;;;;;;;18.30;58.20;;;;;;5055368;28;19932;-75
2021/03/30 09:57:10;;;;;;;;;;;18.30;58.20;;;;;;5041771;28;20430;-76
2021/03/30 09:59:35;;;;;;;;;;;18.30;58.10;;;;;;5041428;28;20372;-76
2021/03/30 10:02:02;;;;;;;;;;;18.40;58.10;;;;;;5059236;28;20016;-76
2021/03/30 10:04:28;;;;;;;;;;;18.40;58.10;;;;;;5034056;28;20015;-78
2021/03/30 10:06:54;;;;;;;;;;;18.40;58.10;;;;;;5051250;28;20033;-76
2021/03/30 10:09:20;;;;;;;;;;;18.40;58.10;;;;;;5031017;28;19917;-76
2021/03/30 10:11:48;;;;;;;;;;;18.40;58.00;;;;;;5052323;28;19920;-75
2021/03/30 10:14:19;;;;;;;;;;;18.40;58.00;;;;;;5036746;28;19971;-76
2021/03/30 10:16:45;;;;;;;;;;;18.40;58.00;;;;;;5053350;28;19924;-77
2021/03/30 10:19:15;;;;;;;;;;;18.40;57.90;;;;;;5030656;28;20016;-76
2021/03/30 10:21:41;;;;;;;;;;;18.50;57.90;;;;;;5048107;28;19999;-76
2021/03/30 10:24:11;;;;;;;;;;;18.40;57.90;;;;;;5029125;28;19920;-76
2021/03/30 10:26:37;;;;;;;;;;;18.50;57.90;;;;;;5053118;28;20026;-76
2021/03/30 10:29:24;;;;;;;;;;;18.50;57.80;;;;;;5036978;28;19913;-77
2021/03/30 10:31:59;;;;;;;;;;;18.50;57.80;;;;;;5038570;28;20442;-76
2021/03/30 10:34:28;;;;;;;;;;;18.50;57.70;;;;;;5021225;28;20386;-75
2021/03/30 10:36:56;;;;;;;;;;;18.50;57.70;;;;;;5034433;28;20386;-75
2021/03/30 10:39:29;;;;;;;;;;;18.50;57.70;;;;;;5028959;28;19924;-75
2021/03/30 10:42:15;;;;;;;;;;;18.50;57.70;;;;;;5030794;28;19929;-75
2021/03/30 10:44:40;;;;;;;;;;;18.50;57.60;;;;;;5021970;28;19996;-75
2021/03/30 10:47:12;;;;;;;;;;;18.50;57.60;;;;;;5032517;28;20419;-75
2021/03/30 10:49:37;;;;;;;;;;;18.50;57.60;;;;;;5031594;28;19913;-75
2021/03/30 10:52:04;;;;;;;;;;;18.50;57.60;;;;;;5030699;28;20481;-76
2021/03/30 10:54:30;;;;;;;;;;;18.50;57.60;;;;;;5031663;28;20008;-75
2021/03/30 10:56:55;;;;;;;;;;;18.50;57.60;;;;;;5029324;28;20358;-75
2021/03/30 10:59:21;;;;;;;;;;;18.50;57.60;;;;;;5019723;28;20004;-75
2021/03/30 11:01:46;;;;;;;;;;;18.50;57.60;;;;;;5027876;28;19913;-76
2021/03/30 11:04:12;;;;;;;;;;;18.60;57.60;;;;;;5023233;28;19935;-76
2021/03/30 11:06:37;;;;;;;;;;;18.50;57.60;;;;;;5032055;28;19917;-75
2021/03/30 11:09:03;;;;;;;;;;;18.50;57.60;;;;;;5032947;28;19913;-76
2021/03/30 11:11:35;;;;;;;;;;;18.50;57.60;;;;;;5034709;28;19913;-75
2021/03/30 11:14:00;;;;;;;;;;;18.50;57.60;;;;;;5032439;28;19917;-75
2021/03/30 11:16:27;;;;;;;;;;;18.50;57.60;;;;;;5028824;28;19928;-75
2021/03/30 11:18:52;;;;;;;;;;;18.60;57.60;;;;;;5025043;28;19959;-75
2021/03/30 11:21:18;;;;;;;;;;;18.60;57.50;;;;;;5029101;28;19913;-75
2021/03/30 11:23:44;;;;;;;;;;;18.60;57.50;;;;;;5027967;28;19960;-75
2021/03/30 11:26:11;;;;;;;;;;;18.60;57.50;;;;;;5014046;28;19949;-76
2021/03/30 11:28:40;;;;;;;;;;;18.60;57.50;;;;;;5031914;28;20291;-75
2021/03/30 11:31:12;;;;;;;;;;;18.60;57.50;;;;;;5021450;28;19913;-75
2021/03/30 11:33:46;;;;;;;;;;;18.60;57.50;;;;;;5014261;28;19917;-76
2021/03/30 11:36:12;;;;;;;;;;;18.60;57.50;;;;;;5031972;28;19917;-75
2021/03/30 11:38:38;;;;;;;;;;;18.60;57.50;;;;;;5020567;28;19929;-75
2021/03/30 11:41:03;;;;;;;;;;;18.60;57.50;;;;;;5028678;28;19925;-75
2021/03/30 11:43:29;;;;;;;;;;;18.60;57.40;;;;;;5031604;28;19917;-75
2021/03/30 11:45:54;;;;;;;;;;;18.60;57.40;;;;;;5033067;28;19995;-75
2021/03/30 11:48:20;;;;;;;;;;;18.60;57.40;;;;;;5020269;28;20326;-75
2021/03/30 11:50:45;;;;;;;;;;;18.60;57.40;;;;;;5028898;28;19924;-75
2021/03/30 11:53:11;;;;;;;;;;;18.60;57.40;;;;;;5023776;28;19924;-75
2021/03/30 11:55:36;;;;;;;;;;;18.60;57.40;;;;;;5032504;28;19986;-75
2021/03/30 11:58:02;;;;;;;;;;;18.60;57.40;;;;;;5027688;28;20367;-75
2021/03/30 12:00:32;;;;;;;;;;;18.70;57.30;;;;;;5032087;28;20307;-75
2021/03/30 12:02:58;;;;;;;;;;;18.70;57.40;;;;;;5031330;28;20298;-75
2021/03/30 12:05:23;;;;;;;;;;;18.60;57.30;;;;;;5030816;28;19922;-75
2021/03/30 12:07:51;;;;;;;;;;;18.60;57.30;;;;;;5022842;28;19913;-74
2021/03/30 12:10:17;;;;;;;;;;;18.70;57.30;;;;;;5027378;28;19913;-76
2021/03/30 12:12:42;;;;;;;;;;;18.70;57.30;;;;;;5022315;28;19921;-74
2021/03/30 12:15:10;;;;;;;;;;;18.70;57.30;;;;;;5029151;28;20409;-75
2021/03/30 12:17:36;;;;;;;;;;;18.70;57.30;;;;;;5025700;28;19961;-74
2021/03/30 12:20:02;;;;;;;;;;;18.70;57.30;;;;;;5030106;28;19975;-74
2021/03/30 12:22:28;;;;;;;;;;;18.70;57.20;;;;;;5026904;28;19913;-75
2021/03/30 12:24:53;;;;;;;;;;;18.70;57.20;;;;;;5026108;28;20414;-75
2021/03/30 12:27:19;;;;;;;;;;;18.70;57.20;;;;;;5031439;28;19935;-75
2021/03/30 12:29:44;;;;;;;;;;;18.70;57.20;;;;;;5023720;28;20397;-76
2021/03/30 12:32:13;;;;;;;;;;;18.70;57.20;;;;;;5026839;28;19920;-76
2021/03/30 12:34:39;;;;;;;;;;;18.70;57.20;;;;;;5028055;28;20275;-74
2021/03/30 12:37:05;;;;;;;;;;;18.70;57.20;;;;;;5028906;28;19921;-75
2021/03/30 12:39:30;;;;;;;;;;;18.70;57.20;;;;;;5031342;28;19920;-74
2021/03/30 12:41:56;;;;;;;;;;;18.70;57.20;;;;;;5028208;28;19921;-81
2021/03/30 12:44:21;;;;;;;;;;;18.70;57.10;;;;;;5024134;28;19920;-74
2021/03/30 12:46:47;;;;;;;;;;;18.70;57.10;;;;;;5031445;28;19913;-74
2021/03/30 12:49:13;;;;;;;;;;;18.80;57.10;;;;;;5027397;28;20360;-75
2021/03/30 12:51:39;;;;;;;;;;;18.70;57.10;;;;;;5031339;28;19922;-74
2021/03/30 12:54:04;;;;;;;;;;;18.70;57.10;;;;;;5029537;28;19921;-75
2021/03/30 12:56:30;;;;;;;;;;;18.70;57.10;;;;;;5025147;28;19917;-74
2021/03/30 12:58:55;;;;;;;;;;;18.70;57.10;;;;;;5029966;28;19921;-74
2021/03/30 13:01:21;;;;;;;;;;;18.70;57.10;;;;;;5026854;28;19914;-72
2021/03/30 13:03:46;;;;;;;;;;;18.80;57.10;;;;;;5026044;28;19919;-73
2021/03/30 13:06:12;;;;;;;;;;;18.80;57.00;;;;;;5051890;28;19960;-74
2021/03/30 13:08:37;;;;;;;;;;;18.80;57.00;;;;;;5023261;28;19923;-73
2021/03/30 13:11:03;;;;;;;;;;;18.80;57.00;;;;;;5024547;28;19913;-78
2021/03/30 13:13:29;;;;;;;;;;;18.80;57.00;;;;;;5031219;28;19940;-74
2021/03/30 13:15:54;;;;;;;;;;;18.80;57.00;;;;;;5027021;28;19917;-74
2021/03/30 13:18:20;;;;;;;;;;;18.80;57.00;;;;;;5024194;28;19913;-74
2021/03/30 13:20:45;;;;;;;;;;;18.80;57.00;;;;;;5027916;28;19924;-75
2021/03/30 13:23:11;;;;;;;;;;;18.80;57.00;;;;;;5035213;28;19967;-75
2021/03/30 13:25:36;;;;;;;;;;;18.80;57.00;;;;;;5027854;28;19913;-76
2021/03/30 13:28:05;;;;;;;;;;;18.80;57.00;;;;;;5029771;28;20282;-75
2021/03/30 13:30:30;;;;;;;;;;;18.80;57.00;;;;;;5021892;28;19914;-74
2021/03/30 13:33:02;;;;;;;;;;;18.80;57.00;;;;;;5027533;28;19924;-74
2021/03/30 13:35:27;;;;;;;;;;;18.80;56.90;;;;;;5025116;28;20306;-74
2021/03/30 13:37:53;;;;;;;;;;;18.80;57.00;;;;;;5028815;28;19913;-75
2021/03/30 13:40:19;;;;;;;;;;;18.80;56.90;;;;;;5029170;28;19913;-76
2021/03/30 13:42:45;;;;;;;;;;;18.80;56.90;;;;;;5031489;28;19921;-74
2021/03/30 13:45:11;;;;;;;;;;;18.80;56.90;;;;;;5029203;28;20363;-74
2021/03/30 13:47:37;;;;;;;;;;;18.80;56.90;;;;;;5023362;28;19913;-75
2021/03/30 13:50:04;;;;;;;;;;;18.80;56.90;;;;;;5031571;28;19913;-75
2021/03/30 13:52:29;;;;;;;;;;;18.80;56.90;;;;;;5057726;28;19908;-74
2021/03/30 13:54:55;;;;;;;;;;;18.80;56.90;;;;;;5047876;28;20263;-75
2021/03/30 13:57:20;;;;;;;;;;;18.80;56.90;;;;;;5030947;28;19915;-76
2021/03/30 13:59:46;;;;;;;;;;;18.80;56.90;;;;;;5028107;28;20014;-79
2021/03/30 14:02:13;;;;;;;;;;;18.80;56.90;;;;;;5051316;28;19913;-77
2021/03/30 14:04:39;;;;;;;;;;;18.80;56.90;;;;;;5028906;28;19919;-78
2021/03/30 14:07:05;;;;;;;;;;;18.80;56.90;;;;;;5037599;28;20265;-76
2021/03/30 14:09:32;;;;;;;;;;;18.80;56.90;;;;;;5029860;28;19982;-78
2021/03/30 14:12:02;;;;;;;;;;;18.80;56.90;;;;;;5060855;28;19947;-76
2021/03/30 14:14:31;;;;;;;;;;;18.80;56.90;;;;;;5033277;28;19939;-76
2021/03/30 14:17:41;;;;;;;;;;;18.80;56.80;;;;;;5046394;28;19932;-77
2021/03/30 14:19:48;;;;;;;;;;;18.80;56.90;;;;;;5034861;28;19913;-76
2021/03/30 14:22:15;;;;;;;;;;;18.80;56.80;;;;;;5053601;28;19913;-76
2021/03/30 14:24:49;;;;;;;;;;;18.80;56.80;;;;;;5049760;28;19948;-77
2021/03/30 14:27:15;;;;;;;;;;;18.80;56.80;;;;;;5020203;28;19968;-78